Time;durP1;ratioP1;P1;durP2;ratioP2;P2;SDS_P1;SDS_P2;PMS_P1;PMS_P2;Temp;Humidity;BMP_temperature;BMP_pressure;BME280_temperature;BME280_humidity;BME280_pressure;Samples;Min_cycle;Max_cycle;Signal;HPM_P1;HPM_P2
2021/05/26 00:01:43;;;;;;;;;;;26.40;99.90;;;;;;1910738;74;20199;-87
2021/05/26 00:04:12;;;;;;;;;;;26.40;99.90;;;;;;1911976;74;20211;-87
2021/05/26 00:06:42;;;;;;;;;;;26.40;99.90;;;;;;1908952;74;20172;-88
2021/05/26 00:09:12;;;;;;;;;;;26.40;99.90;;;;;;1919458;74;20600;-87
2021/05/26 00:11:43;;;;;;;;;;;26.40;99.90;;;;;;1907476;74;20119;-87
2021/05/26 00:14:13;;;;;;;;;;;26.40;99.90;;;;;;1907933;74;20439;-87
2021/05/26 00:16:44;;;;;;;;;;;26.40;99.90;;;;;;1907997;74;20228;-87
2021/05/26 00:19:13;;;;;;;;;;;26.40;99.90;;;;;;1903983;74;20481;-88
2021/05/26 00:21:46;;;;;;;;;;;26.40;99.90;;;;;;1907020;74;20477;-87
2021/05/26 00:24:17;;;;;;;;;;;26.50;99.90;;;;;;1899072;74;20183;-87
2021/05/26 00:26:47;;;;;;;;;;;26.50;99.90;;;;;;1891562;75;20207;-86
2021/05/26 00:29:17;;;;;;;;;;;26.40;99.90;;;;;;1888768;74;20250;-88
2021/05/26 00:31:47;;;;;;;;;;;26.40;99.90;;;;;;1894502;74;20431;-88
2021/05/26 00:34:16;;;;;;;;;;;26.50;99.90;;;;;;1890706;76;20207;-87
2021/05/26 00:36:46;;;;;;;;;;;26.50;99.90;;;;;;1891566;75;20410;-88
2021/05/26 00:39:16;;;;;;;;;;;26.50;99.90;;;;;;1892518;76;20229;-88
2021/05/26 00:41:46;;;;;;;;;;;26.60;99.90;;;;;;1893845;74;20454;-87
2021/05/26 00:44:16;;;;;;;;;;;26.60;99.90;;;;;;1892529;76;20187;-88
2021/05/26 00:46:46;;;;;;;;;;;26.60;99.90;;;;;;1893147;76;20246;-88
2021/05/26 00:49:22;;;;;;;;;;;26.60;99.90;;;;;;1888277;76;20210;-88
2021/05/26 00:51:53;;;;;;;;;;;26.60;99.90;;;;;;1889631;76;20132;-87
2021/05/26 00:54:23;;;;;;;;;;;26.70;99.90;;;;;;1892741;76;20442;-86
2021/05/26 00:56:52;;;;;;;;;;;26.70;99.90;;;;;;1889492;76;20207;-85
2021/05/26 00:59:22;;;;;;;;;;;26.70;99.90;;;;;;1893787;76;20211;-83
2021/05/26 01:01:52;;;;;;;;;;;26.80;99.90;;;;;;1894687;76;20136;-84
2021/05/26 01:04:21;;;;;;;;;;;26.80;99.90;;;;;;1895428;74;20194;-86
2021/05/26 01:06:51;;;;;;;;;;;26.90;99.90;;;;;;1893501;76;20171;-83
2021/05/26 01:09:23;;;;;;;;;;;26.90;99.90;;;;;;1906713;74;20156;-83
2021/05/26 01:11:53;;;;;;;;;;;27.00;99.90;;;;;;1901739;74;20175;-83
2021/05/26 01:14:23;;;;;;;;;;;27.10;99.90;;;;;;1895102;76;20159;-83
2021/05/26 01:16:53;;;;;;;;;;;27.10;99.90;;;;;;1894428;74;20140;-85
2021/05/26 01:19:41;;;;;;;;;;;27.20;99.90;;;;;;1851740;77;20193;-84
2021/05/26 01:22:11;;;;;;;;;;;27.20;99.90;;;;;;1795569;80;20202;-86
2021/05/26 01:24:41;;;;;;;;;;;27.30;99.90;;;;;;1798901;78;20189;-84
2021/05/26 01:27:12;;;;;;;;;;;27.30;99.90;;;;;;1810836;78;20214;-84
2021/05/26 01:29:42;;;;;;;;;;;27.40;99.90;;;;;;1822087;78;20171;-85
2021/05/26 01:32:11;;;;;;;;;;;27.40;99.90;;;;;;1816657;78;20193;-85
2021/05/26 01:34:44;;;;;;;;;;;27.50;99.90;;;;;;1801764;78;20190;-82
2021/05/26 01:37:14;;;;;;;;;;;27.50;99.90;;;;;;1834524;76;20185;-84
2021/05/26 01:39:45;;;;;;;;;;;27.60;99.90;;;;;;1838140;76;20262;-84
2021/05/26 01:42:15;;;;;;;;;;;27.70;99.90;;;;;;1841860;77;20453;-84
2021/05/26 01:44:47;;;;;;;;;;;27.70;99.90;;;;;;1837034;77;20194;-84
2021/05/26 01:47:17;;;;;;;;;;;27.80;99.90;;;;;;1843482;77;20325;-85
2021/05/26 01:49:47;;;;;;;;;;;27.80;99.90;;;;;;1838730;76;20179;-85
2021/05/26 01:52:18;;;;;;;;;;;27.90;99.90;;;;;;1834235;77;20179;-84
2021/05/26 01:54:48;;;;;;;;;;;27.90;99.90;;;;;;1838689;78;20183;-84
2021/05/26 01:57:18;;;;;;;;;;;27.90;99.90;;;;;;1838129;77;20431;-88
2021/05/26 01:59:48;;;;;;;;;;;28.00;99.90;;;;;;1838759;77;20171;-86
2021/05/26 02:02:18;;;;;;;;;;;28.00;99.90;;;;;;1837285;76;20173;-87
2021/05/26 02:04:47;;;;;;;;;;;28.10;99.90;;;;;;1847457;77;20170;-88
2021/05/26 02:07:20;;;;;;;;;;;28.10;99.90;;;;;;1840016;77;20147;-88
2021/05/26 02:09:50;;;;;;;;;;;28.10;99.90;;;;;;1839505;77;20262;-88
2021/05/26 02:14:53;;;;;;;;;;;28.10;99.90;;;;;;1815843;78;20256;-87
2021/05/26 02:17:23;;;;;;;;;;;28.00;99.90;;;;;;1840082;76;20223;-87
2021/05/26 02:19:53;;;;;;;;;;;28.00;99.90;;;;;;1806744;78;20210;-88
2021/05/26 02:22:23;;;;;;;;;;;28.00;99.90;;;;;;1759822;80;20198;-87
2021/05/26 02:24:53;;;;;;;;;;;28.00;99.80;;;;;;1782148;80;20174;-87
2021/05/26 02:27:23;;;;;;;;;;;28.00;99.90;;;;;;1770935;80;20177;-87
2021/05/26 02:30:05;;;;;;;;;;;28.00;99.90;;;;;;1771731;80;20198;-88
2021/05/26 02:32:33;;;;;;;;;;;28.10;99.90;;;;;;1784512;78;20179;-87
2021/05/26 02:35:04;;;;;;;;;;;28.10;99.70;;;;;;1783639;78;20695;-88
2021/05/26 02:37:34;;;;;;;;;;;28.30;99.30;;;;;;1797896;78;20208;-86
2021/05/26 02:40:06;;;;;;;;;;;28.40;99.50;;;;;;1841758;77;20521;-85
2021/05/26 02:42:37;;;;;;;;;;;28.60;98.70;;;;;;1794390;78;20268;-88
2021/05/26 02:45:08;;;;;;;;;;;28.70;97.90;;;;;;1768369;81;20238;-85
2021/05/26 02:47:37;;;;;;;;;;;28.90;97.80;;;;;;1767187;79;20208;-84
2021/05/26 02:50:07;;;;;;;;;;;29.00;97.60;;;;;;1769984;79;20488;-87
2021/05/26 02:52:37;;;;;;;;;;;29.20;97.10;;;;;;1797754;78;20450;-87
2021/05/26 02:55:08;;;;;;;;;;;29.30;96.70;;;;;;1753544;81;20208;-86
2021/05/26 02:57:37;;;;;;;;;;;29.40;96.20;;;;;;1773422;80;20744;-87
2021/05/26 03:00:09;;;;;;;;;;;29.60;95.90;;;;;;1765696;80;20209;-88
2021/05/26 03:02:40;;;;;;;;;;;29.70;95.70;;;;;;1795137;78;20211;-86
2021/05/26 03:05:11;;;;;;;;;;;29.80;95.90;;;;;;1808139;78;20253;-86
2021/05/26 03:07:41;;;;;;;;;;;29.90;95.10;;;;;;1793953;78;20446;-86
2021/05/26 03:10:13;;;;;;;;;;;30.10;94.80;;;;;;1786201;78;20209;-86
2021/05/26 03:12:43;;;;;;;;;;;30.10;94.70;;;;;;1789182;79;20206;-86
2021/05/26 03:15:14;;;;;;;;;;;30.20;93.90;;;;;;1793998;78;20271;-86
2021/05/26 03:17:48;;;;;;;;;;;30.30;93.60;;;;;;1794464;78;20232;-88
2021/05/26 03:20:18;;;;;;;;;;;30.30;93.80;;;;;;1760527;80;20727;-87
2021/05/26 03:22:48;;;;;;;;;;;30.30;93.50;;;;;;1814077;76;20217;-89
2021/05/26 03:25:18;;;;;;;;;;;30.30;93.60;;;;;;1809867;78;20284;-88
2021/05/26 03:27:48;;;;;;;;;;;30.50;94.40;;;;;;1810461;78;20209;-89
2021/05/26 03:30:19;;;;;;;;;;;30.60;92.90;;;;;;1810174;78;20197;-88
2021/05/26 03:32:53;;;;;;;;;;;30.80;92.20;;;;;;1807591;78;20197;-89
2021/05/26 03:35:41;;;;;;;;;;;31.00;92.10;;;;;;1805242;78;20098;-89
2021/05/26 03:38:18;;;;;;;;;;;31.10;91.10;;;;;;1808547;78;20197;-90
2021/05/26 03:40:48;;;;;;;;;;;31.10;90.70;;;;;;1809066;78;20234;-88
2021/05/26 03:43:18;;;;;;;;;;;31.20;90.40;;;;;;1809292;78;20173;-89
2021/05/26 03:45:48;;;;;;;;;;;31.20;90.90;;;;;;1808784;78;20181;-90
2021/05/26 03:48:18;;;;;;;;;;;31.30;90.40;;;;;;1808145;79;20216;-91
2021/05/26 03:50:47;;;;;;;;;;;31.30;91.10;;;;;;1810822;78;20606;-90
2021/05/26 03:53:17;;;;;;;;;;;31.40;91.30;;;;;;1811138;78;20182;-94
2021/05/26 03:55:47;;;;;;;;;;;31.50;90.80;;;;;;1803221;79;20754;-89
2021/05/26 03:58:16;;;;;;;;;;;31.40;90.30;;;;;;1806802;78;20205;-89
2021/05/26 04:00:46;;;;;;;;;;;31.40;89.60;;;;;;1802043;79;20480;-89
2021/05/26 04:03:16;;;;;;;;;;;31.50;90.60;;;;;;1813104;78;20261;-90
2021/05/26 04:05:47;;;;;;;;;;;31.60;90.00;;;;;;1809135;78;20206;-90
2021/05/26 04:08:20;;;;;;;;;;;31.80;88.70;;;;;;1806409;79;20936;-90
2021/05/26 04:10:50;;;;;;;;;;;31.80;88.90;;;;;;1806081;79;20221;-91
2021/05/26 04:13:28;;;;;;;;;;;31.70;87.80;;;;;;1807120;78;20445;-90
2021/05/26 04:16:01;;;;;;;;;;;31.60;87.90;;;;;;1807252;79;20212;-90
2021/05/26 04:18:31;;;;;;;;;;;31.50;87.70;;;;;;1811472;78;20175;-89
2021/05/26 04:21:10;;;;;;;;;;;31.60;89.20;;;;;;1805305;78;20185;-89
2021/05/26 04:23:56;;;;;;;;;;;31.50;87.70;;;;;;1804292;77;20179;-88
2021/05/26 04:26:23;;;;;;;;;;;31.60;88.50;;;;;;1841405;76;20167;-89
2021/05/26 04:28:57;;;;;;;;;;;31.60;87.40;;;;;;1840160;78;20203;-89
2021/05/26 04:31:28;;;;;;;;;;;31.70;87.70;;;;;;1839282;77;20240;-89
2021/05/26 04:34:04;;;;;;;;;;;31.70;86.80;;;;;;1804195;78;20211;-89
2021/05/26 04:36:41;;;;;;;;;;;;;;;;;;;;;
2021/05/26 04:39:16;;;;;;;;;;;31.60;87.60;;;;;;1840200;77;20317;-87
2021/05/26 04:41:54;;;;;;;;;;;31.50;87.60;;;;;;1835547;77;20591;-89
2021/05/26 04:44:28;;;;;;;;;;;31.50;90.30;;;;;;1836280;77;20168;-88
2021/05/26 04:47:00;;;;;;;;;;;31.50;90.30;;;;;;1813835;78;20207;-88
2021/05/26 04:49:31;;;;;;;;;;;31.60;86.60;;;;;;1842420;77;20183;-88
2021/05/26 04:52:10;;;;;;;;;;;31.60;87.20;;;;;;1841944;77;20136;-89
2021/05/26 04:54:42;;;;;;;;;;;31.70;86.20;;;;;;1810945;77;20150;-89
2021/05/26 04:57:23;;;;;;;;;;;31.70;84.80;;;;;;1765073;81;20235;-89
2021/05/26 04:59:56;;;;;;;;;;;31.80;85.00;;;;;;1815455;78;20173;-89
2021/05/26 05:02:26;;;;;;;;;;;31.80;85.60;;;;;;1811919;78;20177;-89
2021/05/26 05:04:56;;;;;;;;;;;32.00;84.40;;;;;;1779349;79;20184;-89
2021/05/26 05:07:27;;;;;;;;;;;32.00;84.80;;;;;;1838279;76;20198;-87
2021/05/26 05:10:03;;;;;;;;;;;31.90;85.80;;;;;;1838749;78;20214;-89
2021/05/26 05:12:34;;;;;;;;;;;31.80;85.40;;;;;;1802915;78;20540;-88
2021/05/26 05:15:05;;;;;;;;;;;31.60;85.40;;;;;;1844617;76;20517;-88
2021/05/26 05:17:35;;;;;;;;;;;31.50;87.60;;;;;;1812843;78;20182;-88
2021/05/26 05:20:05;;;;;;;;;;;31.40;88.50;;;;;;1843560;77;20128;-89
2021/05/26 05:22:35;;;;;;;;;;;31.40;89.80;;;;;;1806330;78;20174;-90
2021/05/26 05:25:06;;;;;;;;;;;31.40;90.00;;;;;;1787179;79;20186;-88
2021/05/26 05:27:36;;;;;;;;;;;31.30;90.00;;;;;;1841450;77;20274;-89
2021/05/26 05:30:07;;;;;;;;;;;31.30;89.50;;;;;;1836244;77;20581;-89
2021/05/26 05:32:39;;;;;;;;;;;31.20;89.70;;;;;;1835314;78;20431;-87
2021/05/26 05:35:14;;;;;;;;;;;31.20;90.50;;;;;;1836583;78;20155;-87
2021/05/26 05:37:41;;;;;;;;;;;31.20;90.50;;;;;;1827903;77;20540;-88
2021/05/26 05:40:13;;;;;;;;;;;31.20;90.50;;;;;;1828663;78;20221;-89
2021/05/26 05:42:47;;;;;;;;;;;31.20;90.10;;;;;;1830735;78;20145;-76
2021/05/26 05:45:18;;;;;;;;;;;31.30;89.90;;;;;;1792887;79;20179;-76
2021/05/26 05:47:52;;;;;;;;;;;31.30;90.00;;;;;;1790758;79;20238;-76
2021/05/26 05:50:23;;;;;;;;;;;31.30;89.60;;;;;;1768753;80;20135;-77
2021/05/26 05:52:53;;;;;;;;;;;31.40;90.20;;;;;;1769417;80;20232;-78
2021/05/26 05:55:23;;;;;;;;;;;31.60;90.10;;;;;;1760621;80;20208;-78
2021/05/26 05:58:00;;;;;;;;;;;31.70;90.00;;;;;;1795631;78;20198;-79
2021/05/26 06:00:24;;;;;;;;;;;31.80;87.60;;;;;;1788820;78;20189;-78
2021/05/26 06:02:54;;;;;;;;;;;32.00;88.10;;;;;;1748379;81;20173;-78
2021/05/26 06:05:24;;;;;;;;;;;32.10;89.10;;;;;;1755550;80;20688;-79
2021/05/26 06:07:54;;;;;;;;;;;32.20;88.00;;;;;;1761836;81;20218;-77
2021/05/26 06:10:24;;;;;;;;;;;32.40;86.40;;;;;;1830947;78;20197;-77
2021/05/26 06:12:56;;;;;;;;;;;32.50;84.00;;;;;;1832742;77;20165;-77
2021/05/26 06:15:25;;;;;;;;;;;32.70;84.80;;;;;;1830121;78;20230;-77
2021/05/26 06:17:56;;;;;;;;;;;32.80;84.40;;;;;;1833388;77;20217;-77
2021/05/26 06:20:26;;;;;;;;;;;32.80;85.30;;;;;;1834208;78;20832;-76
2021/05/26 06:22:56;;;;;;;;;;;32.80;82.70;;;;;;1829474;77;20183;-77
2021/05/26 06:25:26;;;;;;;;;;;32.70;84.60;;;;;;1839836;76;20227;-77
2021/05/26 06:27:56;;;;;;;;;;;32.70;83.20;;;;;;1834461;77;20221;-77
2021/05/26 06:30:26;;;;;;;;;;;32.60;84.50;;;;;;1796572;79;20303;-77
2021/05/26 06:32:55;;;;;;;;;;;32.60;84.70;;;;;;1791258;79;20217;-78
2021/05/26 06:35:25;;;;;;;;;;;32.60;86.90;;;;;;1781034;79;20205;-77
2021/05/26 06:37:55;;;;;;;;;;;32.50;87.00;;;;;;1801406;79;20213;-78
2021/05/26 06:40:24;;;;;;;;;;;32.50;87.40;;;;;;1801279;78;20535;-77
2021/05/26 06:42:54;;;;;;;;;;;32.40;88.80;;;;;;1799158;78;20203;-78
2021/05/26 06:45:27;;;;;;;;;;;32.20;85.20;;;;;;1796419;79;20213;-77
2021/05/26 06:47:56;;;;;;;;;;;32.10;85.10;;;;;;1796924;78;20229;-77
2021/05/26 06:50:26;;;;;;;;;;;31.90;85.20;;;;;;1797737;79;20196;-77
2021/05/26 06:52:56;;;;;;;;;;;31.80;87.80;;;;;;1798634;79;20166;-77
2021/05/26 06:55:26;;;;;;;;;;;31.70;88.50;;;;;;1797141;79;20172;-77
2021/05/26 06:57:55;;;;;;;;;;;31.70;90.20;;;;;;1797958;78;20315;-77
2021/05/26 07:00:25;;;;;;;;;;;31.60;88.60;;;;;;1796135;79;20295;-77
2021/05/26 07:02:55;;;;;;;;;;;31.60;89.10;;;;;;1796466;78;20186;-78
2021/05/26 07:05:25;;;;;;;;;;;31.60;90.00;;;;;;1815674;78;20274;-77
2021/05/26 07:07:56;;;;;;;;;;;31.50;89.90;;;;;;1830881;77;20183;-77
2021/05/26 07:10:26;;;;;;;;;;;31.50;90.00;;;;;;1834410;77;20179;-77
2021/05/26 07:12:57;;;;;;;;;;;31.40;90.00;;;;;;1816919;78;20290;-76
2021/05/26 07:15:27;;;;;;;;;;;31.40;89.80;;;;;;1818283;78;20215;-77
2021/05/26 07:17:58;;;;;;;;;;;31.30;90.10;;;;;;1815434;78;20299;-77
2021/05/26 07:20:28;;;;;;;;;;;31.30;89.50;;;;;;1833316;77;20231;-78
2021/05/26 07:22:58;;;;;;;;;;;31.30;89.30;;;;;;1861989;76;20222;-78
2021/05/26 07:25:28;;;;;;;;;;;31.20;90.00;;;;;;1857644;76;20142;-77
2021/05/26 07:27:58;;;;;;;;;;;31.20;90.20;;;;;;1855263;77;20228;-77
2021/05/26 07:30:28;;;;;;;;;;;31.20;90.10;;;;;;1861114;77;20268;-77
2021/05/26 07:32:59;;;;;;;;;;;31.20;90.40;;;;;;1858695;76;20197;-77
2021/05/26 07:35:29;;;;;;;;;;;31.20;90.50;;;;;;1859878;76;20313;-76
2021/05/26 07:37:58;;;;;;;;;;;31.20;90.40;;;;;;1859746;77;20162;-78
2021/05/26 07:40:28;;;;;;;;;;;31.10;90.10;;;;;;1858609;77;20261;-78
2021/05/26 07:42:58;;;;;;;;;;;31.10;90.30;;;;;;1858775;75;20186;-78
2021/05/26 07:45:28;;;;;;;;;;;31.10;90.00;;;;;;1858700;77;20193;-78
2021/05/26 07:47:58;;;;;;;;;;;31.00;90.30;;;;;;1857908;76;20265;-78
2021/05/26 07:50:34;;;;;;;;;;;30.70;90.50;;;;;;1818221;77;20251;-78
2021/05/26 07:53:06;;;;;;;;;;;30.50;88.40;;;;;;1823227;77;20227;-78
2021/05/26 07:55:37;;;;;;;;;;;30.30;88.60;;;;;;1830452;77;20138;-77
2021/05/26 07:58:06;;;;;;;;;;;30.00;88.20;;;;;;1823821;78;20215;-78
2021/05/26 08:00:36;;;;;;;;;;;29.80;89.70;;;;;;1822720;77;20498;-78
2021/05/26 08:03:06;;;;;;;;;;;29.60;90.40;;;;;;1777517;80;20295;-78
2021/05/26 08:05:37;;;;;;;;;;;29.30;91.00;;;;;;1817637;77;20214;-78
2021/05/26 08:08:08;;;;;;;;;;;29.10;90.70;;;;;;1786048;79;20262;-78
2021/05/26 08:10:38;;;;;;;;;;;29.00;91.10;;;;;;1820592;77;20548;-80
2021/05/26 08:13:09;;;;;;;;;;;28.90;91.20;;;;;;1819392;78;20282;-78
2021/05/26 08:15:39;;;;;;;;;;;28.90;91.20;;;;;;1816073;77;20281;-78
2021/05/26 08:18:11;;;;;;;;;;;28.90;90.30;;;;;;1826788;77;20217;-78
2021/05/26 08:20:41;;;;;;;;;;;28.80;90.10;;;;;;1817873;77;20212;-77
2021/05/26 08:23:11;;;;;;;;;;;28.80;89.80;;;;;;1827554;77;20129;-76
2021/05/26 08:25:41;;;;;;;;;;;28.80;90.30;;;;;;1858462;76;20516;-78
2021/05/26 08:28:11;;;;;;;;;;;28.90;90.40;;;;;;1857857;76;20388;-77
2021/05/26 08:30:42;;;;;;;;;;;29.00;90.10;;;;;;1865783;75;20517;-77
2021/05/26 08:33:13;;;;;;;;;;;29.10;90.30;;;;;;1859237;76;20173;-78
2021/05/26 08:35:43;;;;;;;;;;;29.20;90.40;;;;;;1857992;77;20197;-77
2021/05/26 08:38:12;;;;;;;;;;;29.20;90.60;;;;;;1863514;77;20174;-78
2021/05/26 08:40:42;;;;;;;;;;;29.30;90.80;;;;;;1857313;76;20221;-79
2021/05/26 08:43:14;;;;;;;;;;;29.30;90.60;;;;;;1859235;76;20284;-78
2021/05/26 08:45:44;;;;;;;;;;;29.30;90.50;;;;;;1863014;76;20250;-79
2021/05/26 08:48:15;;;;;;;;;;;29.40;90.80;;;;;;1868813;76;20634;-81
2021/05/26 08:50:47;;;;;;;;;;;29.50;91.00;;;;;;1853184;76;20189;-79
2021/05/26 08:53:17;;;;;;;;;;;29.50;91.10;;;;;;1865315;76;20264;-79
2021/05/26 08:55:47;;;;;;;;;;;29.60;91.30;;;;;;1861005;76;20207;-78
2021/05/26 08:58:17;;;;;;;;;;;29.60;91.40;;;;;;1861382;77;20220;-78
2021/05/26 09:00:48;;;;;;;;;;;29.70;91.00;;;;;;1857009;76;20186;-78
2021/05/26 09:03:18;;;;;;;;;;;29.80;91.30;;;;;;1859205;76;20136;-79
2021/05/26 09:05:48;;;;;;;;;;;29.80;91.50;;;;;;1857371;76;20407;-76
2021/05/26 09:08:20;;;;;;;;;;;29.90;91.20;;;;;;1861548;75;20146;-78
2021/05/26 09:10:51;;;;;;;;;;;30.00;91.30;;;;;;1859946;77;20166;-78
2021/05/26 09:13:22;;;;;;;;;;;30.00;90.80;;;;;;1864114;77;20225;-77
2021/05/26 09:15:53;;;;;;;;;;;30.10;90.30;;;;;;1842079;77;20232;-78
2021/05/26 09:18:23;;;;;;;;;;;30.20;90.50;;;;;;1845891;77;20235;-77
2021/05/26 09:20:55;;;;;;;;;;;30.20;90.70;;;;;;1826844;77;20164;-78
2021/05/26 09:23:25;;;;;;;;;;;30.20;90.50;;;;;;1797476;78;20198;-78
2021/05/26 09:25:56;;;;;;;;;;;30.30;90.60;;;;;;1862075;75;20211;-78
2021/05/26 09:28:28;;;;;;;;;;;30.30;90.60;;;;;;1867137;76;20203;-79
2021/05/26 09:30:59;;;;;;;;;;;30.30;90.50;;;;;;1865711;76;20287;-77
2021/05/26 09:33:31;;;;;;;;;;;30.30;90.70;;;;;;1854992;76;20214;-78
2021/05/26 09:36:02;;;;;;;;;;;30.40;90.80;;;;;;1855332;76;20575;-78
2021/05/26 09:38:33;;;;;;;;;;;30.40;90.90;;;;;;1860766;76;20237;-78
2021/05/26 09:41:04;;;;;;;;;;;30.40;90.90;;;;;;1855295;76;20205;-78
2021/05/26 09:43:35;;;;;;;;;;;30.50;91.30;;;;;;1863563;75;20296;-78
2021/05/26 09:46:06;;;;;;;;;;;30.50;90.70;;;;;;1857267;77;20263;-78
2021/05/26 09:48:36;;;;;;;;;;;30.50;90.60;;;;;;1853774;77;20188;-79
2021/05/26 09:51:06;;;;;;;;;;;30.50;90.80;;;;;;1865133;77;20508;-78
2021/05/26 09:53:36;;;;;;;;;;;30.50;90.80;;;;;;1862484;76;20209;-79
2021/05/26 09:56:05;;;;;;;;;;;30.60;90.80;;;;;;1861714;76;20178;-77
2021/05/26 09:58:35;;;;;;;;;;;30.60;90.90;;;;;;1862398;76;20312;-78
2021/05/26 10:01:05;;;;;;;;;;;30.50;90.90;;;;;;1861422;77;20122;-76
2021/05/26 10:03:39;;;;;;;;;;;30.50;90.90;;;;;;1861610;76;20134;-76
2021/05/26 10:06:09;;;;;;;;;;;30.60;91.20;;;;;;1862900;76;20133;-76
2021/05/26 10:08:41;;;;;;;;;;;30.50;90.80;;;;;;1865547;77;20174;-75
2021/05/26 10:11:11;;;;;;;;;;;30.60;91.00;;;;;;1865727;76;20152;-77
2021/05/26 10:13:41;;;;;;;;;;;30.60;91.00;;;;;;1871994;76;20130;-76
2021/05/26 10:16:11;;;;;;;;;;;30.60;91.10;;;;;;1874831;75;20221;-76
2021/05/26 10:18:41;;;;;;;;;;;30.50;91.10;;;;;;1864012;76;20138;-77
2021/05/26 10:21:12;;;;;;;;;;;30.50;91.40;;;;;;1862457;76;20182;-76
2021/05/26 10:23:42;;;;;;;;;;;30.50;91.80;;;;;;1801818;79;20189;-76
2021/05/26 10:26:12;;;;;;;;;;;30.50;92.20;;;;;;1817693;77;20120;-78
2021/05/26 10:28:42;;;;;;;;;;;30.40;92.30;;;;;;1840373;76;20509;-76
2021/05/26 10:31:12;;;;;;;;;;;30.40;92.10;;;;;;1845364;77;20403;-78
2021/05/26 10:33:43;;;;;;;;;;;30.30;92.20;;;;;;1845942;76;20232;-78
2021/05/26 10:36:14;;;;;;;;;;;30.30;92.10;;;;;;1827237;78;20219;-79
2021/05/26 10:38:45;;;;;;;;;;;30.30;91.70;;;;;;1805714;79;20383;-78
2021/05/26 10:41:16;;;;;;;;;;;30.20;91.70;;;;;;1828363;77;20407;-79
2021/05/26 10:43:47;;;;;;;;;;;30.10;91.80;;;;;;1825985;78;20327;-80
2021/05/26 10:46:18;;;;;;;;;;;30.00;92.00;;;;;;1873671;75;20241;-79
2021/05/26 10:48:49;;;;;;;;;;;29.90;91.90;;;;;;1867711;75;20216;-80
2021/05/26 10:51:19;;;;;;;;;;;29.90;92.20;;;;;;1868987;75;20248;-79
2021/05/26 10:53:48;;;;;;;;;;;29.80;92.20;;;;;;1872924;75;20322;-79
2021/05/26 10:56:20;;;;;;;;;;;29.70;92.20;;;;;;1870003;75;20266;-80
2021/05/26 10:58:50;;;;;;;;;;;29.60;92.30;;;;;;1873322;75;20195;-80
2021/05/26 11:01:19;;;;;;;;;;;29.60;92.40;;;;;;1871523;75;20163;-79
2021/05/26 11:03:49;;;;;;;;;;;29.40;92.40;;;;;;1870912;75;20236;-78
2021/05/26 11:06:20;;;;;;;;;;;29.40;92.80;;;;;;1868860;75;20245;-79
2021/05/26 11:08:55;;;;;;;;;;;29.30;92.80;;;;;;1863684;75;20193;-78
2021/05/26 11:11:27;;;;;;;;;;;29.30;92.90;;;;;;1868481;75;20133;-78
2021/05/26 11:13:55;;;;;;;;;;;29.20;93.10;;;;;;1868479;75;20246;-78
2021/05/26 11:16:26;;;;;;;;;;;29.20;93.40;;;;;;1867756;75;20223;-78
2021/05/26 11:18:57;;;;;;;;;;;29.20;93.50;;;;;;1869741;75;20231;-79
2021/05/26 11:21:31;;;;;;;;;;;29.10;93.60;;;;;;1825641;77;20266;-78
2021/05/26 11:23:59;;;;;;;;;;;29.00;93.50;;;;;;1828772;77;20348;-79
2021/05/26 11:26:30;;;;;;;;;;;29.00;93.50;;;;;;1823102;77;20270;-78
2021/05/26 11:29:00;;;;;;;;;;;28.90;93.30;;;;;;1829631;78;20294;-77
2021/05/26 11:31:30;;;;;;;;;;;28.90;93.50;;;;;;1829215;77;20905;-78
2021/05/26 11:34:00;;;;;;;;;;;28.80;93.70;;;;;;1817815;77;20699;-79
2021/05/26 11:36:32;;;;;;;;;;;28.70;93.60;;;;;;1825661;78;20254;-79
2021/05/26 11:39:03;;;;;;;;;;;28.60;93.60;;;;;;1817426;78;20526;-78
2021/05/26 11:41:33;;;;;;;;;;;28.60;93.60;;;;;;1830594;77;20323;-79
2021/05/26 11:44:02;;;;;;;;;;;28.50;93.70;;;;;;1794692;80;20240;-79
2021/05/26 11:46:33;;;;;;;;;;;28.60;93.80;;;;;;1854194;76;20149;-78
2021/05/26 11:49:04;;;;;;;;;;;28.60;93.90;;;;;;1863148;76;20134;-78
2021/05/26 11:51:37;;;;;;;;;;;28.60;93.70;;;;;;1830834;76;20218;-78
2021/05/26 11:54:06;;;;;;;;;;;28.60;93.70;;;;;;1872836;76;20222;-78
2021/05/26 11:56:36;;;;;;;;;;;28.70;93.50;;;;;;1866002;77;20382;-79
2021/05/26 11:59:06;;;;;;;;;;;28.60;93.20;;;;;;1846524;77;20170;-78
2021/05/26 12:01:36;;;;;;;;;;;28.60;93.50;;;;;;1876101;75;20152;-79
2021/05/26 12:04:07;;;;;;;;;;;28.50;93.80;;;;;;1881965;75;20151;-78
2021/05/26 12:06:37;;;;;;;;;;;28.50;93.90;;;;;;1889406;76;20144;-78
2021/05/26 12:09:07;;;;;;;;;;;28.50;93.60;;;;;;1873957;75;20206;-79
2021/05/26 12:11:37;;;;;;;;;;;28.50;93.70;;;;;;1875346;76;20179;-79
2021/05/26 12:14:08;;;;;;;;;;;28.40;93.70;;;;;;1876458;76;20200;-77
2021/05/26 12:16:41;;;;;;;;;;;28.40;93.70;;;;;;1878579;76;20217;-79
2021/05/26 12:19:11;;;;;;;;;;;28.40;93.60;;;;;;1876843;75;20210;-79
2021/05/26 12:21:43;;;;;;;;;;;28.40;93.70;;;;;;1871980;75;20135;-81
2021/05/26 12:24:14;;;;;;;;;;;28.40;93.80;;;;;;1873835;75;20222;-81
2021/05/26 12:26:47;;;;;;;;;;;28.40;93.80;;;;;;1870271;76;20168;-81
2021/05/26 12:29:18;;;;;;;;;;;28.40;93.80;;;;;;1835967;77;20265;-81
2021/05/26 12:31:49;;;;;;;;;;;28.40;94.00;;;;;;1867195;76;20130;-81
2021/05/26 12:34:23;;;;;;;;;;;28.50;94.10;;;;;;1865803;75;20515;-81
2021/05/26 12:36:53;;;;;;;;;;;28.40;94.00;;;;;;1844078;75;20263;-81
2021/05/26 12:39:25;;;;;;;;;;;28.40;93.90;;;;;;1869295;76;20207;-81
2021/05/26 12:41:57;;;;;;;;;;;28.40;93.80;;;;;;1865653;75;20402;-80
2021/05/26 12:44:27;;;;;;;;;;;28.40;93.90;;;;;;1866627;75;20221;-80
2021/05/26 12:46:59;;;;;;;;;;;28.40;94.00;;;;;;1871155;75;20229;-80
2021/05/26 12:52:01;;;;;;;;;;;28.40;94.30;;;;;;1834328;76;20205;-78
2021/05/26 12:54:35;;;;;;;;;;;28.40;94.20;;;;;;1862395;76;20706;-88
2021/05/26 12:57:11;;;;;;;;;;;28.40;94.10;;;;;;1871309;76;20228;-90
2021/05/26 12:59:43;;;;;;;;;;;28.40;94.10;;;;;;1835829;76;20206;-88
2021/05/26 13:02:14;;;;;;;;;;;28.40;94.00;;;;;;1871558;76;20177;-90
2021/05/26 13:04:45;;;;;;;;;;;28.50;94.00;;;;;;1871490;75;20235;-89
2021/05/26 13:07:16;;;;;;;;;;;28.50;93.90;;;;;;1871859;76;20238;-90
2021/05/26 13:09:46;;;;;;;;;;;28.60;93.80;;;;;;1872560;75;20498;-91
2021/05/26 13:12:26;;;;;;;;;;;28.60;93.80;;;;;;1875814;76;20218;-91
2021/05/26 13:14:56;;;;;;;;;;;28.70;94.20;;;;;;1871275;76;20203;-90
2021/05/26 13:17:29;;;;;;;;;;;28.60;94.20;;;;;;1870359;75;20198;-90
2021/05/26 13:20:15;;;;;;;;;;;28.60;94.20;;;;;;1866260;75;20479;-89
2021/05/26 13:22:45;;;;;;;;;;;28.60;94.20;;;;;;1860982;75;20235;-89
2021/05/26 13:25:15;;;;;;;;;;;28.50;94.30;;;;;;1864539;76;20233;-88
2021/05/26 13:27:50;;;;;;;;;;;28.60;94.20;;;;;;1871390;76;20121;-89
2021/05/26 13:30:18;;;;;;;;;;;28.50;94.10;;;;;;1866501;76;20220;-89
2021/05/26 13:32:48;;;;;;;;;;;28.50;94.30;;;;;;1871325;76;20586;-89
2021/05/26 13:35:18;;;;;;;;;;;28.50;94.30;;;;;;1824886;77;20181;-87
2021/05/26 13:37:52;;;;;;;;;;;28.40;94.10;;;;;;1846775;77;20161;-86
2021/05/26 13:40:20;;;;;;;;;;;28.30;94.00;;;;;;1855262;75;20168;-88
2021/05/26 13:42:50;;;;;;;;;;;28.30;94.00;;;;;;1844701;76;20213;-89
2021/05/26 13:45:24;;;;;;;;;;;28.30;94.10;;;;;;1838316;76;20225;-87
2021/05/26 13:47:54;;;;;;;;;;;28.40;94.30;;;;;;1826189;77;20162;-91
2021/05/26 13:50:25;;;;;;;;;;;28.40;94.20;;;;;;1850865;75;20134;-89
2021/05/26 13:53:02;;;;;;;;;;;28.40;94.10;;;;;;1824198;78;20169;-90
2021/05/26 13:55:34;;;;;;;;;;;28.40;94.10;;;;;;1832469;76;20183;-92
2021/05/26 14:00:55;;;;;;;;;;;28.40;94.20;;;;;;1788560;79;20182;-90
2021/05/26 14:03:30;;;;;;;;;;;28.40;94.30;;;;;;1796255;78;20123;-92
2021/05/26 14:05:58;;;;;;;;;;;28.40;94.60;;;;;;1836635;76;20223;-90
2021/05/26 14:08:31;;;;;;;;;;;28.30;94.70;;;;;;1837358;77;20185;-92
2021/05/26 14:11:03;;;;;;;;;;;28.30;94.60;;;;;;1827886;77;20350;-87
2021/05/26 14:13:40;;;;;;;;;;;28.20;94.50;;;;;;1831860;78;20239;-89
2021/05/26 14:16:10;;;;;;;;;;;28.20;94.50;;;;;;1835265;76;20223;-89
2021/05/26 14:18:40;;;;;;;;;;;28.30;94.50;;;;;;1826050;76;20225;-90
2021/05/26 14:21:22;;;;;;;;;;;28.30;94.50;;;;;;1834644;77;20175;-91
2021/05/26 14:23:54;;;;;;;;;;;28.30;94.50;;;;;;1835220;78;20217;-90
2021/05/26 14:26:26;;;;;;;;;;;28.30;94.50;;;;;;1846463;76;20101;-89
2021/05/26 14:29:03;;;;;;;;;;;28.30;94.50;;;;;;1840965;77;20601;-91
2021/05/26 14:31:39;;;;;;;;;;;28.30;94.60;;;;;;1848211;78;20237;-91
2021/05/26 14:34:11;;;;;;;;;;;28.30;94.90;;;;;;1848476;78;20198;-91
2021/05/26 14:37:10;;;;;;;;;;;28.30;95.00;;;;;;1852748;76;20165;-91
2021/05/26 14:39:19;;;;;;;;;;;28.20;95.00;;;;;;1885661;75;20203;-91
2021/05/26 14:41:49;;;;;;;;;;;28.20;94.90;;;;;;1889190;76;20489;-92
2021/05/26 14:44:19;;;;;;;;;;;28.20;94.90;;;;;;1889968;74;20257;-91
2021/05/26 14:46:49;;;;;;;;;;;28.20;95.10;;;;;;1913041;73;20244;-91
2021/05/26 14:49:42;;;;;;;;;;;28.20;95.10;;;;;;1895185;75;20112;-89